Flight Track Log - Related Links

Times and Time Zones

All times are in EDT time to prevent confusion due to time zone crossing. See the DAL6196 flight status page for this flight to view local times or setup timezone preferences in your user account.

Time Position Orientation Groundspeed Altitude Reporting Facility
EDT Latitude Longitude Course Direction KTS MPH feet Rate Location/Type
Mon 08:09:38 AM 36.1167 -86.6833 122° Southeast 156 180 1,300  Level Nashville TRACON
Mon 08:10:57 AM 36.0833 -86.6167 122° Southeast 262 302 3,300 1,883 Climbing Nashville TRACON
Mon 08:11:55 AM 36.0994 -86.5319 77° East 270 311 5,600 2,526 Climbing Memphis Center
Mon 08:13:48 AM 36.1375 -86.3683 74° East 293 337 10,500 2,229 Climbing Indianapolis Center
Mon 08:14:50 AM 36.1700 -86.2614 69° East 328 377 12,100 1,500 Climbing Indianapolis Center
Mon 08:15:52 AM 36.2089 -86.1450 67° East 358 412 13,600 1,790 Climbing Indianapolis Center
Mon 08:16:54 AM 36.2569 -86.0000 68° East 384 442 15,800 1,984 Climbing Indianapolis Center
Mon 08:17:56 AM 36.3003 -85.8742 67° East 394 453 17,700 1,500 Climbing Indianapolis Center
Mon 08:18:58 AM 36.3394 -85.7594 67° East 398 458 18,900 1,548 Climbing Indianapolis Center
Mon 08:20:00 AM 36.3728 -85.5994 75° East 398 458 20,900 1,500 Climbing Indianapolis Center
Mon 08:21:02 AM 36.4161 -85.4686 68° East 407 468 22,000 1,016 Climbing Indianapolis Center
Mon 08:22:04 AM 36.4742 -85.3422 60° Northeast 424 488 23,000 968 Climbing Indianapolis Center
Mon 08:23:06 AM 36.5467 -85.2219 53° Northeast 432 497 24,000 968 Climbing Indianapolis Center
Mon 08:24:08 AM 36.6175 -85.0981 55° Northeast 438 504 25,000 1,065 Climbing Indianapolis Center
Mon 08:25:10 AM 36.6622 -84.9542 69° East 441 507 26,200 1,161 Climbing Indianapolis Center
Mon 08:26:12 AM 36.7067 -84.8103 69° East 443 510 27,400 1,161 Climbing Indianapolis Center
Mon 08:27:14 AM 36.7606 -84.6386 69° East 444 511 28,600 1,065 Climbing Indianapolis Center
Mon 08:28:16 AM 36.8017 -84.5025 69° East 445 512 29,600 968 Climbing Indianapolis Center
Mon 08:29:18 AM 36.8467 -84.3578 69° East 448 516 30,600 968 Climbing Indianapolis Center
Mon 08:30:20 AM 36.8903 -84.2122 69° East 450 518 31,600 1,016 Climbing Indianapolis Center
Mon 08:31:22 AM 36.9425 -84.0453 69° East 442 509 32,700 871 Climbing Indianapolis Center
Mon 08:32:24 AM 36.9847 -83.9000 70° East 442 509 33,400 720 Climbing Indianapolis Center
Mon 08:33:27 AM 37.0311 -83.7525 68° East 451 519 34,200 720 Climbing Indianapolis Center
Mon 08:34:29 AM 37.0753 -83.6061 69° East 449 517 34,900 387 Climbing Indianapolis Center
Mon 08:35:31 AM 37.1183 -83.4572 70° East 452 520 35,000 48 Climbing Indianapolis Center
Mon 08:36:33 AM 37.1639 -83.3069 69° East 457 526 35,000  Level Indianapolis Center
Mon 08:37:35 AM 37.2081 -83.1561 70° East 457 526 35,000  Level Indianapolis Center
Mon 08:38:37 AM 37.2597 -82.9778 70° East 461 531 35,000  Level Indianapolis Center
Mon 08:39:39 AM 37.3050 -82.8236 70° East 465 535 35,000  Level Indianapolis Center
Mon 08:40:41 AM 37.3492 -82.6706 70° East 465 535 35,000  Level Indianapolis Center
Mon 08:41:43 AM 37.3933 -82.5161 70° East 466 536 35,000  Level Indianapolis Center
Mon 08:42:45 AM 37.4378 -82.3619 70° East 466 536 35,000  Level Indianapolis Center
Mon 08:43:47 AM 37.4811 -82.2081 70° East 466 536 35,000  Level Indianapolis Center
Mon 08:44:49 AM 37.5250 -82.0544 70° East 466 536 35,000  Level Indianapolis Center
Mon 08:45:51 AM 37.5758 -81.8725 71° East 469 540 35,000  Level Indianapolis Center
Mon 08:46:53 AM 37.6200 -81.7153 70° East 474 545 35,000  Level Indianapolis Center
Mon 08:47:55 AM 37.6628 -81.5575 71° East 476 548 35,000  Level Indianapolis Center
Mon 08:48:57 AM 37.7108 -81.3817 71° East 476 548 35,000  Level Indianapolis Center
Mon 08:49:59 AM 37.7539 -81.2272 71° East 479 551 35,000  Level Indianapolis Center
Mon 08:51:01 AM 37.7864 -81.0678 75° East 484 557 35,000  Level Indianapolis Center
Mon 08:52:03 AM 37.7956 -80.9022 86° East 486 559 35,000  Level Indianapolis Center
Mon 08:53:05 AM 37.8067 -80.7053 86° East 483 556 35,000  Level Indianapolis Center
Mon 08:54:07 AM 37.8167 -80.5533 85° East 487 560 35,000  Level Indianapolis Center
Mon 08:55:09 AM 37.8286 -80.3739 85° East 487 560 35,000  Level Indianapolis Center
Mon 08:56:11 AM 37.8408 -80.1742 86° East 488 562 35,000  Level Indianapolis Center
Mon 08:57:15 AM 37.8519 -80.0128 85° East 482 555 35,000  Level Washington Center
Mon 08:58:17 AM 37.8644 -79.8425 85° East 482 555 35,000  Level Washington Center
Mon 08:59:15 AM 37.8747 -79.6669 86° East 482 555 35,000  Level Washington Center
Mon 09:00:16 AM 37.8847 -79.4911 86° East 488 562 35,000  Level Washington Center
Mon 09:01:16 AM 37.8922 -79.3153 87° East 493 567 35,000  Level Washington Center
Mon 09:02:16 AM 37.9022 -79.1236 86° East 498 573 35,000  Level Washington Center
Mon 09:03:17 AM 37.9242 -78.9481 81° East 498 573 35,000  Level Washington Center
Mon 09:04:17 AM 37.9433 -78.7753 82° East 498 573 35,000  Level Washington Center
Mon 09:05:17 AM 37.9644 -78.5997 81° East 503 579 35,000  Level Washington Center
Mon 09:06:15 AM 37.9831 -78.4450 81° East 498 573 35,000  Level Washington Center
Mon 09:07:16 AM 38.0036 -78.2667 82° East 498 573 35,000  Level Washington Center
Mon 09:08:17 AM 38.0178 -78.0931 84° East 498 573 35,000  Level Washington Center
Mon 09:09:15 AM 38.0275 -77.9247 86° East 493 567 35,000  Level Washington Center
Mon 09:10:15 AM 38.0369 -77.7511 86° East 493 567 35,000  Level Washington Center
Mon 09:11:16 AM 38.0464 -77.5747 86° East 498 573 35,000  Level Washington Center
Mon 09:12:17 AM 38.0575 -77.4036 85° East 498 573 35,000 -504 Level Washington Center
Mon 09:13:15 AM 38.0869 -77.2353 77° East 498 573 34,000 -1,008 Descending Washington Center
Mon 09:14:16 AM 38.1661 -77.0786 57° Northeast 495 570 33,000 -984 Descending Washington Center
Mon 09:15:17 AM 38.2408 -76.9294 57° Northeast 495 570 32,000 -496 Descending Washington Center
Mon 09:16:17 AM 38.3217 -76.7694 57° Northeast 495 570 32,000 -153 Level Washington Center
Mon 09:17:15 AM 38.3939 -76.6247 57° Northeast 490 564 31,700 -661 Descending Washington Center
Mon 09:18:15 AM 38.4661 -76.4772 58° Northeast 485 558 30,700 -1,000 Descending Washington Center
Mon 09:19:15 AM 38.5503 -76.3431 51° Northeast 485 558 29,700 -992 Descending Washington Center
Mon 09:20:16 AM 38.6408 -76.2136 48° Northeast 485 558 28,700 -984 Descending Washington Center
Mon 09:21:17 AM 38.7350 -76.0786 48° Northeast 490 564 27,700 -850 Descending Washington Center
Mon 09:22:16 AM 38.8272 -75.9486 48° Northeast 490 564 27,000 -353 Descending Washington Center
Mon 09:23:16 AM 38.9194 -75.8183 48° Northeast 490 564 27,000  Level Washington Center
Mon 09:24:15 AM 39.0258 -75.7092 39° Northeast 484 557 27,000 -706 Level Washington Center
Mon 09:25:15 AM 39.1406 -75.6075 34° Northeast 501 577 25,600 -1,438 Descending Washington Center
Mon 09:26:16 AM 39.2447 -75.5086 36° Northeast 479 551 24,100 -1,623 Descending Washington Center
Mon 09:27:17 AM 39.3508 -75.4117 35° Northeast 464 534 22,300 -1,563 Descending Washington Center
Mon 09:28:15 AM 39.4547 -75.3200 34° Northeast 457 526 21,000 -1,525 Descending Washington Center
Mon 09:29:15 AM 39.5547 -75.2283 35° Northeast 445 512 19,300 -1,537 Descending Washington Center
Mon 09:30:16 AM 39.6522 -75.1386 35° Northeast 436 502 17,900 -1,426 Descending Washington Center
Mon 09:31:17 AM 39.7456 -75.0572 34° Northeast 418 481 16,400 -1,438 Descending Washington Center
Mon 09:32:17 AM 39.8267 -74.9836 35° Northeast 406 467 15,000 -1,510 Descending Washington Center
Mon 09:33:40 AM 39.9500 -74.8500 40° Northeast 375 432 12,800 -1,533 Descending New York TRACON
Mon 09:34:34 AM 40.0167 -74.7667 44° Northeast 371 427 11,500 -1,421 Descending New York TRACON
Mon 09:35:34 AM 40.0833 -74.6667 49° Northeast 365 420 10,100 -789 Descending New York TRACON
Mon 09:36:28 AM 40.1500 -74.5833 44° Northeast 362 417 10,000 -53 Descending New York TRACON
Mon 09:37:28 AM 40.2167 -74.4833 49° Northeast 352 405 10,000 -526 Level New York TRACON
Mon 09:38:22 AM 40.2667 -74.4167 45° Northeast 292 336 9,000 -1,250 Descending New York TRACON
Mon 09:39:28 AM 40.3333 -74.3500 37° Northeast 288 331 7,500 -952 Descending New York TRACON
Mon 09:40:28 AM 40.4000 -74.2833 37° Northeast 284 327 7,000 -250 Descending New York TRACON
Mon 09:41:28 AM 40.4500 -74.2167 45° Northeast 281 323 7,000 -250 Level New York TRACON
Mon 09:42:28 AM 40.5167 -74.1500 37° Northeast 281 323 6,500 -950 Descending New York TRACON
Mon 09:43:28 AM 40.5833 -74.0833 37° Northeast 273 314 5,100 -1,211 Descending New York TRACON
Mon 09:44:22 AM 40.6333 -74.0333 37° Northeast 267 307 4,200 -611 Descending New York TRACON
Mon 09:45:16 AM 40.6833 -73.9833 37° Northeast 255 293 4,000 -100 Descending New York TRACON
Mon 09:46:22 AM 40.7167 -73.9167 57° Northeast 199 229 4,000  Level New York TRACON
Mon 09:47:22 AM 40.7500 -73.8500 57° Northeast 193 222 4,000  Level New York TRACON
Mon 09:48:22 AM 40.7667 -73.7833 72° East 193 222 4,000  Level New York TRACON
Mon 09:49:22 AM 40.8000 -73.7500 37° Northeast 189 217 4,000 -150 Level New York TRACON
Mon 09:50:22 AM 40.8500 -73.7000 37° Northeast 189 217 3,700 -550 Descending New York TRACON
Mon 09:51:22 AM 40.9000 -73.7000 360° North 187 215 2,900 -800 Descending New York TRACON

Login

Don't have an account? Register now (free) for customized features, flight alerts, and more!